createdAt,value
2022-08-22T00:02:58.278Z,2.93
2022-08-22T00:03:07.476Z,4.23
2022-08-22T00:04:00.766Z,4.03
2022-08-22T00:09:26.798Z,8.37
2022-08-22T00:14:40.582Z,4.23
2022-08-22T00:20:00.510Z,5.53
2022-08-22T00:25:40.675Z,3.97
2022-08-22T00:30:56.029Z,4.93
2022-08-22T00:36:21.888Z,3.73
2022-08-22T00:42:07.054Z,4.63
2022-08-22T00:47:51.262Z,5.03
2022-08-22T00:53:11.175Z,6.23
2022-08-22T00:58:53.217Z,5.70
2022-08-22T01:04:29.452Z,3.90
2022-08-22T01:09:48.011Z,4.90
2022-08-22T01:15:00.468Z,5.07
2022-08-22T01:20:37.949Z,5.27
2022-08-22T01:26:32.261Z,5.90
2022-08-22T01:32:05.998Z,4.93
2022-08-22T01:37:33.881Z,4.33
2022-08-22T01:43:12.090Z,5.90
2022-08-22T01:48:23.310Z,4.83
2022-08-22T01:53:41.898Z,4.40
2022-08-22T01:59:02.256Z,5.63
2022-08-22T02:04:12.087Z,3.93
2022-08-22T02:09:41.695Z,5.57
2022-08-22T02:14:53.834Z,5.13
2022-08-22T02:20:17.531Z,6.57
2022-08-22T02:25:33.536Z,3.73
2022-08-22T02:30:52.002Z,5.10
2022-08-22T02:36:03.697Z,3.87
2022-08-22T02:41:18.698Z,4.63
2022-08-22T02:46:41.354Z,4.63
2022-08-22T02:51:59.909Z,5.20
2022-08-22T02:57:14.690Z,4.10
2022-08-22T03:02:35.223Z,4.40
2022-08-22T03:08:03.898Z,4.10
2022-08-22T03:13:22.298Z,4.90
2022-08-22T03:18:47.383Z,4.17
2022-08-22T03:23:58.199Z,3.97
2022-08-22T03:29:11.859Z,4.57
2022-08-22T03:34:22.132Z,4.17
2022-08-22T03:40:09.617Z,3.83
2022-08-22T03:45:50.663Z,5.07
2022-08-22T03:51:32.783Z,6.57
2022-08-22T03:57:26.253Z,5.23
2022-08-22T04:03:08.988Z,5.57
2022-08-22T04:09:05.043Z,4.97
2022-08-22T04:14:53.958Z,5.67
2022-08-22T04:20:30.949Z,5.73
2022-08-22T04:25:39.122Z,5.53
2022-08-22T04:30:46.270Z,4.17
2022-08-22T04:35:59.650Z,4.80
2022-08-22T04:41:08.713Z,6.33
2022-08-22T04:46:18.823Z,5.60
2022-08-22T04:51:27.780Z,5.83
2022-08-22T04:56:39.190Z,5.73
2022-08-22T05:01:44.823Z,4.90
2022-08-22T05:06:52.711Z,3.83
2022-08-22T05:12:11.427Z,5.80
2022-08-22T05:17:20.230Z,4.70
2022-08-22T05:22:27.558Z,6.30
2022-08-22T05:27:36.688Z,4.87
2022-08-22T05:32:49.411Z,5.77
2022-08-22T05:37:56.981Z,5.13
2022-08-22T05:43:01.691Z,4.20
2022-08-22T05:48:14.019Z,7.23
2022-08-22T05:53:26.086Z,5.57
2022-08-22T05:58:46.375Z,4.63
2022-08-22T06:03:58.785Z,8.13
2022-08-22T06:09:04.593Z,4.77
2022-08-22T06:14:18.319Z,6.50
2022-08-22T06:19:27.025Z,5.23
2022-08-22T06:24:31.063Z,5.50
2022-08-22T06:29:37.817Z,6.00
2022-08-22T06:34:43.206Z,8.90
2022-08-22T06:39:49.022Z,5.23
2022-08-22T06:44:56.979Z,6.17
2022-08-22T06:50:05.468Z,4.60
2022-08-22T06:55:09.908Z,7.23
2022-08-22T07:00:16.044Z,5.33
2022-08-22T07:05:20.977Z,5.27
2022-08-22T07:10:24.982Z,5.00
2022-08-22T07:15:34.653Z,7.10
2022-08-22T07:20:39.382Z,5.30
2022-08-22T07:25:52.533Z,4.20
2022-08-22T07:30:59.282Z,6.10
2022-08-22T07:36:16.304Z,5.93
2022-08-22T07:41:22.776Z,6.38
2022-08-22T07:46:30.589Z,5.50
2022-08-22T07:51:35.881Z,3.40
2022-08-22T07:56:43.270Z,5.47
2022-08-22T08:01:50.192Z,4.25
2022-08-22T08:06:55.317Z,3.63
2022-08-22T08:11:59.103Z,4.78
2022-08-22T08:17:04.738Z,3.40
2022-08-22T08:22:07.773Z,2.25
2022-08-22T08:27:15.383Z,2.38
2022-08-22T08:32:19.140Z,2.85
2022-08-22T08:37:27.626Z,1.98
2022-08-22T08:42:48.994Z,2.13
2022-08-22T08:48:09.590Z,2.13
2022-08-22T08:53:36.440Z,1.48
2022-08-22T08:58:44.384Z,1.63
2022-08-22T09:04:24.999Z,2.22
2022-08-22T09:09:42.867Z,2.42
2022-08-22T09:15:14.294Z,3.42
2022-08-22T09:20:28.664Z,2.75
2022-08-22T09:25:39.201Z,3.45
2022-08-22T09:30:57.874Z,3.58
2022-08-22T09:36:06.061Z,2.75
2022-08-22T09:41:26.965Z,2.67
2022-08-22T09:46:36.989Z,2.67
2022-08-22T09:51:50.288Z,3.55
2022-08-22T09:57:08.297Z,2.88
2022-08-22T10:02:23.638Z,1.65
2022-08-22T10:07:59.173Z,3.33
2022-08-22T10:13:10.692Z,5.93
2022-08-22T10:18:23.966Z,2.42
2022-08-22T10:23:37.632Z,2.42
2022-08-22T10:28:48.647Z,1.30
2022-08-22T10:34:00.899Z,1.33
2022-08-22T10:39:11.611Z,2.28
2022-08-22T10:44:19.119Z,1.48
2022-08-22T10:49:28.370Z,2.38
2022-08-22T10:54:41.394Z,1.58
2022-08-22T10:59:49.140Z,4.82
2022-08-22T11:05:27.638Z,3.00
2022-08-22T11:10:59.842Z,2.38
2022-08-22T11:16:13.258Z,4.20
2022-08-22T11:21:26.288Z,4.68
2022-08-22T11:26:46.659Z,2.35
2022-08-22T11:32:04.307Z,2.35
2022-08-22T11:37:42.197Z,2.38
2022-08-22T11:42:53.678Z,3.22
2022-08-22T11:48:01.585Z,3.33
2022-08-22T11:53:19.791Z,3.38
2022-08-22T11:58:40.885Z,2.33
2022-08-22T12:03:58.453Z,1.50
2022-08-22T12:09:37.997Z,1.85
2022-08-22T12:14:46.825Z,3.75
2022-08-22T12:20:16.612Z,2.60
2022-08-22T12:25:36.278Z,1.58
2022-08-22T12:30:59.913Z,2.20
2022-08-22T12:36:24.489Z,2.65
2022-08-22T12:41:48.230Z,2.15
2022-08-22T12:47:05.903Z,2.33
2022-08-22T12:52:24.256Z,2.03
2022-08-22T12:57:39.093Z,1.30
2022-08-22T13:02:43.432Z,2.80
2022-08-22T13:07:52.530Z,3.50
2022-08-22T13:12:59.233Z,1.98
2022-08-22T13:18:28.774Z,1.33
2022-08-22T13:23:34.287Z,1.98
2022-08-22T13:28:44.807Z,3.17
2022-08-22T13:33:52.640Z,2.70
2022-08-22T13:39:00.907Z,2.42
2022-08-22T13:44:20.590Z,3.08
2022-08-22T13:49:33.451Z,1.88
2022-08-22T13:54:50.423Z,4.10
2022-08-22T14:00:06.186Z,3.13
2022-08-22T14:05:13.429Z,3.45
2022-08-22T14:10:23.609Z,2.70
2022-08-22T14:15:32.186Z,2.40
2022-08-22T14:20:47.516Z,3.30
2022-08-22T14:25:50.128Z,2.08
2022-08-22T14:30:59.365Z,1.50
2022-08-22T14:36:13.351Z,1.10
2022-08-22T14:41:26.383Z,3.25
2022-08-22T14:46:35.530Z,1.75
2022-08-22T14:51:48.800Z,1.30
2022-08-22T14:56:54.821Z,2.20
2022-08-22T15:02:04.863Z,1.45
2022-08-22T15:07:10.549Z,2.88
2022-08-22T15:12:24.667Z,1.27
2022-08-22T15:17:38.208Z,2.53
2022-08-22T15:22:45.463Z,5.53
2022-08-22T15:28:05.182Z,2.63
2022-08-22T15:33:11.952Z,2.67
2022-08-22T15:38:31.480Z,1.80
2022-08-22T15:43:36.209Z,2.13
2022-08-22T15:48:39.430Z,2.58
2022-08-22T15:54:16.298Z,2.28
2022-08-22T15:59:47.703Z,2.75
2022-08-22T16:05:18.837Z,4.10
2022-08-22T16:10:35.122Z,1.63
2022-08-22T16:15:59.109Z,1.52
2022-08-22T16:21:02.495Z,2.10
2022-08-22T16:26:14.357Z,2.45
2022-08-22T16:31:23.502Z,3.40
2022-08-22T16:36:42.627Z,1.67
2022-08-22T16:41:47.182Z,2.25
2022-08-22T16:46:52.848Z,2.85
2022-08-22T16:52:34.378Z,1.17
2022-08-22T16:58:05.279Z,3.97
2022-08-22T17:03:20.052Z,1.40
2022-08-22T17:08:33.881Z,1.80
2022-08-22T17:13:56.076Z,1.20
2022-08-22T17:19:17.706Z,2.47
2022-08-22T17:24:31.718Z,2.65
2022-08-22T17:29:50.019Z,1.90
2022-08-22T17:34:58.977Z,1.70
2022-08-22T17:40:26.446Z,1.17
2022-08-22T17:45:44.810Z,1.27
2022-08-22T17:50:53.215Z,1.02
2022-08-22T17:56:03.363Z,2.72
2022-08-22T18:01:11.723Z,1.75
2022-08-22T18:06:20.402Z,2.17
2022-08-22T18:11:29.369Z,2.58
2022-08-22T18:16:35.379Z,2.85
2022-08-22T18:21:41.852Z,1.48
2022-08-22T18:26:50.968Z,3.20
2022-08-22T18:32:06.380Z,1.75
2022-08-22T18:37:18.979Z,1.73
2022-08-22T18:42:28.681Z,2.47
2022-08-22T18:47:34.307Z,1.30
2022-08-22T18:52:39.602Z,1.10
2022-08-22T18:57:58.994Z,2.50
2022-08-22T19:03:30.230Z,1.40
2022-08-22T19:08:49.315Z,2.90
2022-08-22T19:14:12.769Z,2.97
2022-08-22T19:19:21.090Z,2.03
2022-08-22T19:24:56.072Z,3.60
2022-08-22T19:30:01.379Z,1.93
2022-08-22T19:35:18.553Z,1.37
2022-08-22T19:40:53.570Z,2.13
2022-08-22T19:45:56.609Z,2.63
2022-08-22T19:51:12.672Z,1.30
2022-08-22T19:56:28.241Z,1.70
2022-08-22T20:01:45.934Z,1.43
2022-08-22T20:07:00.500Z,1.23
2022-08-22T20:12:15.540Z,2.57
2022-08-22T20:17:41.595Z,1.63
2022-08-22T20:22:49.803Z,2.27
2022-08-22T20:28:02.674Z,2.67
2022-08-22T20:33:09.209Z,2.23
2022-08-22T20:38:16.550Z,2.57
2022-08-22T20:43:24.474Z,1.90
2022-08-22T20:48:36.670Z,2.80
2022-08-22T20:53:40.167Z,1.63
2022-08-22T20:58:42.227Z,4.53
2022-08-22T21:03:47.509Z,3.93
2022-08-22T21:08:50.797Z,2.23
2022-08-22T21:13:53.538Z,2.63
2022-08-22T21:18:56.104Z,2.43
2022-08-22T21:24:03.292Z,1.90
2022-08-22T21:29:18.339Z,1.27
2022-08-22T21:34:23.426Z,1.40
2022-08-22T21:39:30.643Z,1.93
2022-08-22T21:44:35.949Z,3.33
2022-08-22T21:49:59.126Z,1.50
2022-08-22T21:55:26.241Z,1.97
2022-08-22T22:00:48.933Z,2.10
2022-08-22T22:05:53.114Z,3.50
2022-08-22T22:10:59.409Z,2.87
2022-08-22T22:16:01.429Z,2.03
2022-08-22T22:21:04.231Z,6.33
2022-08-22T22:26:07.296Z,1.60
2022-08-22T22:31:10.281Z,2.50
2022-08-22T22:36:16.323Z,3.73
2022-08-22T22:41:20.938Z,5.47
2022-08-22T22:46:24.200Z,1.70
2022-08-22T22:51:26.312Z,2.30
2022-08-22T22:56:29.784Z,2.20
2022-08-22T23:01:31.986Z,1.93
2022-08-22T23:06:34.863Z,2.23
2022-08-22T23:11:38.722Z,2.23
2022-08-22T23:16:41.025Z,2.13
2022-08-22T23:21:44.537Z,1.87
2022-08-22T23:26:47.992Z,1.93
2022-08-22T23:31:52.159Z,2.30
2022-08-22T23:36:57.964Z,2.93
2022-08-22T23:42:02.026Z,2.33
2022-08-22T23:47:05.557Z,1.67
2022-08-22T23:52:09.100Z,3.13
2022-08-22T23:57:12.780Z,2.10
